Terminal Aerodrome Forecast
Issued by NWS

Home | Current Version | Previous Version | Text Only | Print | Product List | Glossary On
Versions: 1 2 3 4 5 6 7 8 9 10 11 12 13 14 15 16 17
695
FTUS45 KABQ 250525
TAFGUP
TAF
KGUP 250525Z 2506/2606 VRB03KT P6SM SKC
     FM251930 23018G28KT P6SM BKN130
     FM260200 24008KT P6SM VCSH BKN060=

USA.gov is the U.S. government's official web portal to all federal, state and local government web resources and services.